sensor_id;sensor_type;location;lat;lon;timestamp;P1;durP1;ratioP1;P2;durP2;ratioP2
30301;SDS011;17111;52.130;5.028;2023-11-18T00:00:38;26.88;;;16.08;;
30301;SDS011;17111;52.130;5.028;2023-11-18T00:03:05;25.75;;;15.98;;
30301;SDS011;17111;52.130;5.028;2023-11-18T00:05:32;23.88;;;15.30;;
30301;SDS011;17111;52.130;5.028;2023-11-18T00:07:58;27.05;;;15.75;;
30301;SDS011;17111;52.130;5.028;2023-11-18T00:10:26;26.55;;;16.60;;
30301;SDS011;17111;52.130;5.028;2023-11-18T00:12:52;24.55;;;15.90;;
30301;SDS011;17111;52.130;5.028;2023-11-18T00:15:19;25.17;;;15.45;;
30301;SDS011;17111;52.130;5.028;2023-11-18T00:17:46;26.60;;;16.45;;
30301;SDS011;17111;52.130;5.028;2023-11-18T00:20:13;26.50;;;16.35;;
30301;SDS011;17111;52.130;5.028;2023-11-18T00:22:40;28.77;;;15.63;;
30301;SDS011;17111;52.130;5.028;2023-11-18T00:25:08;26.02;;;15.45;;
30301;SDS011;17111;52.130;5.028;2023-11-18T00:27:35;23.42;;;14.93;;
30301;SDS011;17111;52.130;5.028;2023-11-18T00:30:05;25.60;;;15.88;;
30301;SDS011;17111;52.130;5.028;2023-11-18T00:32:34;23.58;;;15.63;;
30301;SDS011;17111;52.130;5.028;2023-11-18T00:35:02;23.80;;;15.00;;
30301;SDS011;17111;52.130;5.028;2023-11-18T00:37:31;24.15;;;15.40;;
30301;SDS011;17111;52.130;5.028;2023-11-18T00:39:57;24.92;;;15.68;;
30301;SDS011;17111;52.130;5.028;2023-11-18T00:42:24;23.58;;;14.18;;
30301;SDS011;17111;52.130;5.028;2023-11-18T00:44:51;25.33;;;15.77;;
30301;SDS011;17111;52.130;5.028;2023-11-18T00:47:18;26.45;;;14.77;;
30301;SDS011;17111;52.130;5.028;2023-11-18T00:49:45;25.02;;;14.98;;
30301;SDS011;17111;52.130;5.028;2023-11-18T00:52:11;23.58;;;14.80;;
30301;SDS011;17111;52.130;5.028;2023-11-18T00:54:38;23.77;;;15.05;;
30301;SDS011;17111;52.130;5.028;2023-11-18T00:57:04;22.85;;;14.07;;
30301;SDS011;17111;52.130;5.028;2023-11-18T00:59:31;21.20;;;13.90;;
30301;SDS011;17111;52.130;5.028;2023-11-18T01:01:57;26.15;;;14.63;;
30301;SDS011;17111;52.130;5.028;2023-11-18T01:04:24;21.63;;;13.73;;
30301;SDS011;17111;52.130;5.028;2023-11-18T01:06:52;21.23;;;13.57;;
30301;SDS011;17111;52.130;5.028;2023-11-18T01:09:18;22.02;;;14.02;;
30301;SDS011;17111;52.130;5.028;2023-11-18T01:11:45;22.77;;;12.90;;
30301;SDS011;17111;52.130;5.028;2023-11-18T01:14:32;20.33;;;13.15;;
30301;SDS011;17111;52.130;5.028;2023-11-18T01:16:58;20.60;;;13.23;;
30301;SDS011;17111;52.130;5.028;2023-11-18T01:19:25;22.25;;;13.43;;
30301;SDS011;17111;52.130;5.028;2023-11-18T01:21:52;21.20;;;12.77;;
30301;SDS011;17111;52.130;5.028;2023-11-18T01:24:19;20.92;;;12.43;;
30301;SDS011;17111;52.130;5.028;2023-11-18T01:26:46;19.55;;;12.10;;
30301;SDS011;17111;52.130;5.028;2023-11-18T01:29:13;24.63;;;12.60;;
30301;SDS011;17111;52.130;5.028;2023-11-18T01:31:40;19.02;;;11.60;;
30301;SDS011;17111;52.130;5.028;2023-11-18T01:34:17;20.75;;;11.48;;
30301;SDS011;17111;52.130;5.028;2023-11-18T01:36:48;20.55;;;12.10;;
30301;SDS011;17111;52.130;5.028;2023-11-18T01:39:16;20.73;;;12.50;;
30301;SDS011;17111;52.130;5.028;2023-11-18T01:41:44;20.02;;;11.77;;
30301;SDS011;17111;52.130;5.028;2023-11-18T01:44:11;17.23;;;11.57;;
30301;SDS011;17111;52.130;5.028;2023-11-18T01:46:41;18.42;;;11.32;;
30301;SDS011;17111;52.130;5.028;2023-11-18T01:49:12;16.50;;;10.32;;
30301;SDS011;17111;52.130;5.028;2023-11-18T01:51:42;19.58;;;11.88;;
30301;SDS011;17111;52.130;5.028;2023-11-18T01:54:12;15.52;;;10.77;;
30301;SDS011;17111;52.130;5.028;2023-11-18T01:56:46;17.10;;;11.25;;
30301;SDS011;17111;52.130;5.028;2023-11-18T01:59:13;18.13;;;11.00;;
30301;SDS011;17111;52.130;5.028;2023-11-18T02:01:48;17.92;;;10.13;;
30301;SDS011;17111;52.130;5.028;2023-11-18T02:04:16;14.70;;;10.23;;
30301;SDS011;17111;52.130;5.028;2023-11-18T02:06:47;18.13;;;10.65;;
30301;SDS011;17111;52.130;5.028;2023-11-18T02:09:18;17.02;;;10.25;;
30301;SDS011;17111;52.130;5.028;2023-11-18T02:14:46;14.23;;;9.68;;
30301;SDS011;17111;52.130;5.028;2023-11-18T02:17:17;15.27;;;9.07;;
30301;SDS011;17111;52.130;5.028;2023-11-18T02:19:46;13.93;;;9.30;;
30301;SDS011;17111;52.130;5.028;2023-11-18T02:22:13;14.52;;;8.98;;
30301;SDS011;17111;52.130;5.028;2023-11-18T02:24:39;15.38;;;9.63;;
30301;SDS011;17111;52.130;5.028;2023-11-18T02:27:08;15.57;;;9.40;;
30301;SDS011;17111;52.130;5.028;2023-11-18T02:29:39;15.35;;;9.15;;
30301;SDS011;17111;52.130;5.028;2023-11-18T02:32:23;13.20;;;8.48;;
30301;SDS011;17111;52.130;5.028;2023-11-18T02:35:09;14.23;;;8.98;;
30301;SDS011;17111;52.130;5.028;2023-11-18T02:37:46;15.55;;;8.82;;
30301;SDS011;17111;52.130;5.028;2023-11-18T02:40:19;13.23;;;8.43;;
30301;SDS011;17111;52.130;5.028;2023-11-18T02:42:50;14.98;;;8.52;;
30301;SDS011;17111;52.130;5.028;2023-11-18T02:45:19;14.32;;;8.82;;
30301;SDS011;17111;52.130;5.028;2023-11-18T02:47:47;13.35;;;8.18;;
30301;SDS011;17111;52.130;5.028;2023-11-18T02:50:15;13.15;;;8.18;;
30301;SDS011;17111;52.130;5.028;2023-11-18T02:52:42;14.00;;;8.52;;
30301;SDS011;17111;52.130;5.028;2023-11-18T02:55:08;14.00;;;8.52;;
30301;SDS011;17111;52.130;5.028;2023-11-18T02:57:35;14.98;;;8.38;;
30301;SDS011;17111;52.130;5.028;2023-11-18T03:00:03;11.90;;;7.80;;
30301;SDS011;17111;52.130;5.028;2023-11-18T03:02:31;11.30;;;7.05;;
30301;SDS011;17111;52.130;5.028;2023-11-18T03:04:58;12.85;;;7.47;;
30301;SDS011;17111;52.130;5.028;2023-11-18T03:07:25;11.90;;;7.75;;
30301;SDS011;17111;52.130;5.028;2023-11-18T03:09:53;10.75;;;7.10;;
30301;SDS011;17111;52.130;5.028;2023-11-18T03:12:23;14.10;;;7.40;;
30301;SDS011;17111;52.130;5.028;2023-11-18T03:14:54;12.30;;;7.47;;
30301;SDS011;17111;52.130;5.028;2023-11-18T03:17:21;11.68;;;7.55;;
30301;SDS011;17111;52.130;5.028;2023-11-18T03:19:48;13.60;;;7.53;;
30301;SDS011;17111;52.130;5.028;2023-11-18T03:22:16;13.63;;;7.90;;
30301;SDS011;17111;52.130;5.028;2023-11-18T03:24:43;13.82;;;7.70;;
30301;SDS011;17111;52.130;5.028;2023-11-18T03:27:10;10.13;;;7.10;;
30301;SDS011;17111;52.130;5.028;2023-11-18T03:29:36;11.43;;;6.68;;
30301;SDS011;17111;52.130;5.028;2023-11-18T03:32:03;11.52;;;7.00;;
30301;SDS011;17111;52.130;5.028;2023-11-18T03:34:31;9.52;;;6.22;;
30301;SDS011;17111;52.130;5.028;2023-11-18T03:36:58;11.13;;;7.07;;
30301;SDS011;17111;52.130;5.028;2023-11-18T03:39:25;10.73;;;6.93;;
30301;SDS011;17111;52.130;5.028;2023-11-18T03:41:53;13.18;;;7.30;;
30301;SDS011;17111;52.130;5.028;2023-11-18T03:44:20;9.13;;;6.50;;
30301;SDS011;17111;52.130;5.028;2023-11-18T03:46:46;10.80;;;6.63;;
30301;SDS011;17111;52.130;5.028;2023-11-18T03:49:13;10.00;;;6.80;;
30301;SDS011;17111;52.130;5.028;2023-11-18T03:51:40;10.80;;;6.95;;
30301;SDS011;17111;52.130;5.028;2023-11-18T03:54:06;8.70;;;6.20;;
30301;SDS011;17111;52.130;5.028;2023-11-18T03:56:36;9.55;;;6.80;;
30301;SDS011;17111;52.130;5.028;2023-11-18T03:59:03;10.90;;;6.68;;
30301;SDS011;17111;52.130;5.028;2023-11-18T04:01:30;11.00;;;6.72;;
30301;SDS011;17111;52.130;5.028;2023-11-18T04:03:59;9.90;;;6.25;;
30301;SDS011;17111;52.130;5.028;2023-11-18T04:06:25;12.38;;;6.90;;
30301;SDS011;17111;52.130;5.028;2023-11-18T04:08:52;10.27;;;6.40;;
30301;SDS011;17111;52.130;5.028;2023-11-18T04:11:19;12.10;;;6.55;;
30301;SDS011;17111;52.130;5.028;2023-11-18T04:13:45;9.60;;;6.35;;
30301;SDS011;17111;52.130;5.028;2023-11-18T04:16:13;8.30;;;5.63;;
30301;SDS011;17111;52.130;5.028;2023-11-18T04:18:42;8.63;;;5.90;;
30301;SDS011;17111;52.130;5.028;2023-11-18T04:21:10;10.63;;;6.18;;
30301;SDS011;17111;52.130;5.028;2023-11-18T04:23:40;9.60;;;6.28;;
30301;SDS011;17111;52.130;5.028;2023-11-18T04:26:08;8.30;;;6.18;;
30301;SDS011;17111;52.130;5.028;2023-11-18T04:28:35;8.38;;;5.43;;
30301;SDS011;17111;52.130;5.028;2023-11-18T04:31:02;9.10;;;5.85;;
30301;SDS011;17111;52.130;5.028;2023-11-18T04:33:31;10.52;;;6.20;;
30301;SDS011;17111;52.130;5.028;2023-11-18T04:35:58;10.15;;;6.22;;
30301;SDS011;17111;52.130;5.028;2023-11-18T04:38:25;9.95;;;6.50;;
30301;SDS011;17111;52.130;5.028;2023-11-18T04:40:52;7.28;;;5.43;;
30301;SDS011;17111;52.130;5.028;2023-11-18T04:43:20;8.38;;;5.30;;
30301;SDS011;17111;52.130;5.028;2023-11-18T04:46:04;8.48;;;5.53;;
30301;SDS011;17111;52.130;5.028;2023-11-18T04:48:31;8.23;;;5.55;;
30301;SDS011;17111;52.130;5.028;2023-11-18T04:50:59;8.05;;;5.30;;
30301;SDS011;17111;52.130;5.028;2023-11-18T04:53:26;9.30;;;5.43;;
30301;SDS011;17111;52.130;5.028;2023-11-18T04:55:52;9.38;;;5.70;;
30301;SDS011;17111;52.130;5.028;2023-11-18T04:58:20;9.68;;;5.93;;
30301;SDS011;17111;52.130;5.028;2023-11-18T05:00:46;9.93;;;6.00;;
30301;SDS011;17111;52.130;5.028;2023-11-18T05:03:15;9.23;;;5.50;;
30301;SDS011;17111;52.130;5.028;2023-11-18T05:05:43;8.52;;;5.55;;
30301;SDS011;17111;52.130;5.028;2023-11-18T05:08:19;7.57;;;5.03;;
30301;SDS011;17111;52.130;5.028;2023-11-18T05:10:47;9.10;;;5.30;;
30301;SDS011;17111;52.130;5.028;2023-11-18T05:13:15;6.95;;;4.85;;
30301;SDS011;17111;52.130;5.028;2023-11-18T05:15:46;7.40;;;5.10;;
30301;SDS011;17111;52.130;5.028;2023-11-18T05:18:14;7.65;;;5.15;;
30301;SDS011;17111;52.130;5.028;2023-11-18T05:20:42;10.80;;;4.90;;
30301;SDS011;17111;52.130;5.028;2023-11-18T05:23:10;8.55;;;5.40;;
30301;SDS011;17111;52.130;5.028;2023-11-18T05:25:41;6.93;;;4.45;;
30301;SDS011;17111;52.130;5.028;2023-11-18T05:28:09;6.93;;;4.68;;
30301;SDS011;17111;52.130;5.028;2023-11-18T05:30:37;7.63;;;4.68;;
30301;SDS011;17111;52.130;5.028;2023-11-18T05:33:05;9.00;;;4.90;;
30301;SDS011;17111;52.130;5.028;2023-11-18T05:35:32;8.95;;;5.07;;
30301;SDS011;17111;52.130;5.028;2023-11-18T05:38:01;6.45;;;4.55;;
30301;SDS011;17111;52.130;5.028;2023-11-18T05:40:32;8.18;;;5.38;;
30301;SDS011;17111;52.130;5.028;2023-11-18T05:43:02;8.25;;;4.68;;
30301;SDS011;17111;52.130;5.028;2023-11-18T05:45:32;7.13;;;4.40;;
30301;SDS011;17111;52.130;5.028;2023-11-18T05:48:10;7.65;;;4.80;;
30301;SDS011;17111;52.130;5.028;2023-11-18T05:50:37;8.75;;;4.88;;
30301;SDS011;17111;52.130;5.028;2023-11-18T05:53:04;7.63;;;4.60;;
30301;SDS011;17111;52.130;5.028;2023-11-18T05:55:30;7.75;;;4.70;;
30301;SDS011;17111;52.130;5.028;2023-11-18T05:57:57;7.85;;;4.90;;
30301;SDS011;17111;52.130;5.028;2023-11-18T06:00:23;6.57;;;4.45;;
30301;SDS011;17111;52.130;5.028;2023-11-18T06:03:01;6.43;;;4.30;;
30301;SDS011;17111;52.130;5.028;2023-11-18T06:05:28;10.23;;;5.18;;
30301;SDS011;17111;52.130;5.028;2023-11-18T06:07:55;6.30;;;4.47;;
30301;SDS011;17111;52.130;5.028;2023-11-18T06:10:25;6.97;;;4.53;;
30301;SDS011;17111;52.130;5.028;2023-11-18T06:12:51;9.07;;;4.38;;
30301;SDS011;17111;52.130;5.028;2023-11-18T06:15:19;8.70;;;5.10;;
30301;SDS011;17111;52.130;5.028;2023-11-18T06:17:48;10.35;;;5.40;;
30301;SDS011;17111;52.130;5.028;2023-11-18T06:20:15;7.82;;;4.63;;
30301;SDS011;17111;52.130;5.028;2023-11-18T06:22:43;6.97;;;4.90;;
30301;SDS011;17111;52.130;5.028;2023-11-18T06:25:10;7.72;;;4.80;;
30301;SDS011;17111;52.130;5.028;2023-11-18T06:27:39;6.70;;;4.95;;
30301;SDS011;17111;52.130;5.028;2023-11-18T06:30:05;7.60;;;5.05;;
30301;SDS011;17111;52.130;5.028;2023-11-18T06:32:32;8.75;;;5.18;;
30301;SDS011;17111;52.130;5.028;2023-11-18T06:34:59;12.38;;;5.70;;
30301;SDS011;17111;52.130;5.028;2023-11-18T06:37:32;10.07;;;5.18;;
30301;SDS011;17111;52.130;5.028;2023-11-18T06:39:59;9.32;;;4.65;;
30301;SDS011;17111;52.130;5.028;2023-11-18T06:42:26;6.70;;;4.05;;
30301;SDS011;17111;52.130;5.028;2023-11-18T06:44:52;9.27;;;4.97;;
30301;SDS011;17111;52.130;5.028;2023-11-18T06:47:20;8.57;;;4.97;;
30301;SDS011;17111;52.130;5.028;2023-11-18T06:49:46;9.68;;;4.28;;
30301;SDS011;17111;52.130;5.028;2023-11-18T06:52:18;6.95;;;4.13;;
30301;SDS011;17111;52.130;5.028;2023-11-18T06:54:45;5.85;;;4.22;;
30301;SDS011;17111;52.130;5.028;2023-11-18T06:57:11;7.40;;;4.13;;
30301;SDS011;17111;52.130;5.028;2023-11-18T06:59:38;6.78;;;4.40;;
30301;SDS011;17111;52.130;5.028;2023-11-18T07:02:05;6.18;;;3.97;;
30301;SDS011;17111;52.130;5.028;2023-11-18T07:04:33;7.65;;;5.28;;
30301;SDS011;17111;52.130;5.028;2023-11-18T07:06:59;7.65;;;4.60;;
30301;SDS011;17111;52.130;5.028;2023-11-18T07:09:26;7.03;;;4.72;;
30301;SDS011;17111;52.130;5.028;2023-11-18T07:11:53;7.72;;;4.07;;
30301;SDS011;17111;52.130;5.028;2023-11-18T07:14:22;6.22;;;4.25;;
30301;SDS011;17111;52.130;5.028;2023-11-18T07:16:49;7.20;;;4.03;;
30301;SDS011;17111;52.130;5.028;2023-11-18T07:19:15;5.60;;;3.78;;
30301;SDS011;17111;52.130;5.028;2023-11-18T07:21:47;7.85;;;3.80;;
30301;SDS011;17111;52.130;5.028;2023-11-18T07:24:15;9.73;;;5.30;;
30301;SDS011;17111;52.130;5.028;2023-11-18T07:26:44;12.10;;;6.80;;
30301;SDS011;17111;52.130;5.028;2023-11-18T07:29:12;22.35;;;13.80;;
30301;SDS011;17111;52.130;5.028;2023-11-18T07:31:38;21.35;;;13.07;;
30301;SDS011;17111;52.130;5.028;2023-11-18T07:34:05;18.77;;;10.88;;
30301;SDS011;17111;52.130;5.028;2023-11-18T07:36:32;16.80;;;9.57;;
30301;SDS011;17111;52.130;5.028;2023-11-18T07:38:59;16.88;;;9.30;;
30301;SDS011;17111;52.130;5.028;2023-11-18T07:41:33;14.60;;;8.43;;
30301;SDS011;17111;52.130;5.028;2023-11-18T07:43:59;13.05;;;8.50;;
30301;SDS011;17111;52.130;5.028;2023-11-18T07:46:27;15.32;;;9.57;;
30301;SDS011;17111;52.130;5.028;2023-11-18T07:48:57;15.05;;;9.35;;
30301;SDS011;17111;52.130;5.028;2023-11-18T07:51:24;16.48;;;9.38;;
30301;SDS011;17111;52.130;5.028;2023-11-18T07:53:51;16.80;;;9.82;;
30301;SDS011;17111;52.130;5.028;2023-11-18T07:56:19;15.63;;;9.27;;
30301;SDS011;17111;52.130;5.028;2023-11-18T07:58:48;15.05;;;9.00;;
30301;SDS011;17111;52.130;5.028;2023-11-18T08:01:17;18.90;;;10.95;;
30301;SDS011;17111;52.130;5.028;2023-11-18T08:03:44;16.60;;;10.15;;
30301;SDS011;17111;52.130;5.028;2023-11-18T08:06:11;15.23;;;9.05;;
30301;SDS011;17111;52.130;5.028;2023-11-18T08:08:39;18.63;;;11.48;;
30301;SDS011;17111;52.130;5.028;2023-11-18T08:11:10;18.10;;;11.15;;
30301;SDS011;17111;52.130;5.028;2023-11-18T08:13:37;17.55;;;10.95;;
30301;SDS011;17111;52.130;5.028;2023-11-18T08:16:04;20.38;;;11.27;;
30301;SDS011;17111;52.130;5.028;2023-11-18T08:18:31;18.23;;;11.40;;
30301;SDS011;17111;52.130;5.028;2023-11-18T08:20:58;18.42;;;11.43;;
30301;SDS011;17111;52.130;5.028;2023-11-18T08:23:26;24.30;;;13.23;;
30301;SDS011;17111;52.130;5.028;2023-11-18T08:25:55;23.73;;;13.15;;
30301;SDS011;17111;52.130;5.028;2023-11-18T08:28:21;20.65;;;12.70;;
30301;SDS011;17111;52.130;5.028;2023-11-18T08:30:48;23.55;;;13.40;;
30301;SDS011;17111;52.130;5.028;2023-11-18T08:33:19;22.75;;;13.43;;
30301;SDS011;17111;52.130;5.028;2023-11-18T08:35:46;23.60;;;12.43;;
30301;SDS011;17111;52.130;5.028;2023-11-18T08:38:12;24.70;;;12.65;;
30301;SDS011;17111;52.130;5.028;2023-11-18T08:40:39;23.95;;;13.25;;
30301;SDS011;17111;52.130;5.028;2023-11-18T08:43:06;25.38;;;13.90;;
30301;SDS011;17111;52.130;5.028;2023-11-18T08:45:34;18.00;;;11.45;;
30301;SDS011;17111;52.130;5.028;2023-11-18T08:48:03;20.02;;;12.15;;
30301;SDS011;17111;52.130;5.028;2023-11-18T08:50:34;22.80;;;12.55;;
30301;SDS011;17111;52.130;5.028;2023-11-18T08:53:02;19.33;;;12.25;;
30301;SDS011;17111;52.130;5.028;2023-11-18T08:55:32;21.80;;;13.18;;
30301;SDS011;17111;52.130;5.028;2023-11-18T08:58:07;24.55;;;13.40;;
30301;SDS011;17111;52.130;5.028;2023-11-18T09:00:56;21.13;;;11.63;;
30301;SDS011;17111;52.130;5.028;2023-11-18T09:03:39;22.50;;;12.95;;
30301;SDS011;17111;52.130;5.028;2023-11-18T09:06:10;20.88;;;12.05;;
30301;SDS011;17111;52.130;5.028;2023-11-18T09:08:52;22.23;;;12.63;;
30301;SDS011;17111;52.130;5.028;2023-11-18T09:11:23;20.05;;;12.10;;
30301;SDS011;17111;52.130;5.028;2023-11-18T09:13:53;18.35;;;11.13;;
30301;SDS011;17111;52.130;5.028;2023-11-18T09:16:21;21.45;;;11.52;;
30301;SDS011;17111;52.130;5.028;2023-11-18T09:18:59;18.05;;;10.93;;
30301;SDS011;17111;52.130;5.028;2023-11-18T09:21:28;18.90;;;10.48;;
30301;SDS011;17111;52.130;5.028;2023-11-18T09:23:56;19.00;;;11.15;;
30301;SDS011;17111;52.130;5.028;2023-11-18T09:26:23;17.42;;;11.00;;
30301;SDS011;17111;52.130;5.028;2023-11-18T09:28:52;19.25;;;10.60;;
30301;SDS011;17111;52.130;5.028;2023-11-18T09:31:19;16.85;;;10.35;;
30301;SDS011;17111;52.130;5.028;2023-11-18T09:33:48;17.77;;;10.05;;
30301;SDS011;17111;52.130;5.028;2023-11-18T09:36:24;17.17;;;10.95;;
30301;SDS011;17111;52.130;5.028;2023-11-18T09:38:50;17.75;;;10.82;;
30301;SDS011;17111;52.130;5.028;2023-11-18T09:41:18;14.90;;;9.82;;
30301;SDS011;17111;52.130;5.028;2023-11-18T09:43:50;19.95;;;10.40;;
30301;SDS011;17111;52.130;5.028;2023-11-18T09:46:22;18.02;;;10.15;;
30301;SDS011;17111;52.130;5.028;2023-11-18T09:48:51;17.98;;;10.70;;
30301;SDS011;17111;52.130;5.028;2023-11-18T09:51:23;17.73;;;10.27;;
30301;SDS011;17111;52.130;5.028;2023-11-18T09:53:54;17.33;;;9.95;;
30301;SDS011;17111;52.130;5.028;2023-11-18T10:01:47;16.95;;;9.52;;
30301;SDS011;17111;52.130;5.028;2023-11-18T10:04:20;18.90;;;10.38;;
30301;SDS011;17111;52.130;5.028;2023-11-18T10:06:47;15.10;;;10.18;;
30301;SDS011;17111;52.130;5.028;2023-11-18T10:09:16;18.73;;;9.88;;
30301;SDS011;17111;52.130;5.028;2023-11-18T10:11:44;16.55;;;9.15;;
30301;SDS011;17111;52.130;5.028;2023-11-18T10:14:14;16.10;;;9.15;;
30301;SDS011;17111;52.130;5.028;2023-11-18T10:16:44;15.35;;;8.48;;
30301;SDS011;17111;52.130;5.028;2023-11-18T10:19:13;14.70;;;8.73;;
30301;SDS011;17111;52.130;5.028;2023-11-18T10:21:40;12.60;;;8.50;;
30301;SDS011;17111;52.130;5.028;2023-11-18T10:24:08;14.60;;;8.32;;
30301;SDS011;17111;52.130;5.028;2023-11-18T10:26:42;13.90;;;7.75;;
30301;SDS011;17111;52.130;5.028;2023-11-18T10:29:11;14.68;;;7.88;;
30301;SDS011;17111;52.130;5.028;2023-11-18T10:31:39;14.98;;;8.48;;
30301;SDS011;17111;52.130;5.028;2023-11-18T10:34:14;14.63;;;8.65;;
30301;SDS011;17111;52.130;5.028;2023-11-18T10:36:42;16.42;;;9.20;;
30301;SDS011;17111;52.130;5.028;2023-11-18T10:39:29;17.02;;;7.72;;
30301;SDS011;17111;52.130;5.028;2023-11-18T10:42:02;16.00;;;7.95;;
30301;SDS011;17111;52.130;5.028;2023-11-18T10:44:29;16.48;;;8.65;;
30301;SDS011;17111;52.130;5.028;2023-11-18T10:46:56;15.35;;;8.38;;
30301;SDS011;17111;52.130;5.028;2023-11-18T10:49:28;13.45;;;7.70;;
30301;SDS011;17111;52.130;5.028;2023-11-18T10:51:55;14.52;;;7.35;;
30301;SDS011;17111;52.130;5.028;2023-11-18T10:54:30;13.20;;;8.07;;
30301;SDS011;17111;52.130;5.028;2023-11-18T10:56:58;14.07;;;7.07;;
30301;SDS011;17111;52.130;5.028;2023-11-18T10:59:33;12.13;;;7.18;;
30301;SDS011;17111;52.130;5.028;2023-11-18T11:02:00;20.48;;;8.00;;
30301;SDS011;17111;52.130;5.028;2023-11-18T11:04:27;13.05;;;7.53;;
30301;SDS011;17111;52.130;5.028;2023-11-18T11:07:09;18.98;;;7.00;;
30301;SDS011;17111;52.130;5.028;2023-11-18T11:09:37;12.70;;;6.50;;
30301;SDS011;17111;52.130;5.028;2023-11-18T11:12:11;14.43;;;7.15;;
30301;SDS011;17111;52.130;5.028;2023-11-18T11:14:45;13.25;;;6.40;;
30301;SDS011;17111;52.130;5.028;2023-11-18T11:17:19;10.10;;;6.03;;
30301;SDS011;17111;52.130;5.028;2023-11-18T11:22:38;10.23;;;5.90;;
30301;SDS011;17111;52.130;5.028;2023-11-18T11:25:16;12.30;;;6.55;;
30301;SDS011;17111;52.130;5.028;2023-11-18T11:27:57;8.88;;;5.40;;
30301;SDS011;17111;52.130;5.028;2023-11-18T11:33:19;11.60;;;5.63;;
30301;SDS011;17111;52.130;5.028;2023-11-18T11:36:03;9.82;;;5.18;;
30301;SDS011;17111;52.130;5.028;2023-11-18T11:38:38;8.90;;;4.30;;
30301;SDS011;17111;52.130;5.028;2023-11-18T11:41:05;10.07;;;4.65;;
30301;SDS011;17111;52.130;5.028;2023-11-18T11:43:34;8.18;;;4.38;;
30301;SDS011;17111;52.130;5.028;2023-11-18T11:46:01;8.57;;;4.05;;
30301;SDS011;17111;52.130;5.028;2023-11-18T11:48:38;8.50;;;4.10;;
30301;SDS011;17111;52.130;5.028;2023-11-18T11:53:42;6.90;;;4.05;;
30301;SDS011;17111;52.130;5.028;2023-11-18T11:56:14;9.90;;;4.85;;
30301;SDS011;17111;52.130;5.028;2023-11-18T11:58:47;9.30;;;4.30;;
30301;SDS011;17111;52.130;5.028;2023-11-18T12:03:58;6.93;;;3.50;;
30301;SDS011;17111;52.130;5.028;2023-11-18T12:06:33;6.70;;;3.50;;
30301;SDS011;17111;52.130;5.028;2023-11-18T12:09:04;5.60;;;3.08;;
30301;SDS011;17111;52.130;5.028;2023-11-18T12:11:33;6.53;;;3.53;;
30301;SDS011;17111;52.130;5.028;2023-11-18T12:14:06;9.23;;;4.13;;
30301;SDS011;17111;52.130;5.028;2023-11-18T12:19:37;9.07;;;3.80;;
30301;SDS011;17111;52.130;5.028;2023-11-18T12:22:18;6.95;;;3.20;;
30301;SDS011;17111;52.130;5.028;2023-11-18T12:25:28;6.00;;;3.65;;
30301;SDS011;17111;52.130;5.028;2023-11-18T12:27:46;7.60;;;3.35;;
30301;SDS011;17111;52.130;5.028;2023-11-18T12:38:36;7.07;;;2.92;;
30301;SDS011;17111;52.130;5.028;2023-11-18T12:41:45;4.63;;;2.75;;
30301;SDS011;17111;52.130;5.028;2023-11-18T12:46:48;6.60;;;2.88;;
30301;SDS011;17111;52.130;5.028;2023-11-18T12:49:38;3.30;;;2.22;;
30301;SDS011;17111;52.130;5.028;2023-11-18T12:52:08;4.60;;;2.38;;
30301;SDS011;17111;52.130;5.028;2023-11-18T12:54:37;5.55;;;2.33;;
30301;SDS011;17111;52.130;5.028;2023-11-18T12:57:09;4.68;;;2.15;;
30301;SDS011;17111;52.130;5.028;2023-11-18T12:59:40;3.47;;;2.25;;
30301;SDS011;17111;52.130;5.028;2023-11-18T13:02:07;3.63;;;1.90;;
30301;SDS011;17111;52.130;5.028;2023-11-18T13:04:40;4.55;;;1.98;;
30301;SDS011;17111;52.130;5.028;2023-11-18T13:07:07;4.47;;;2.17;;
30301;SDS011;17111;52.130;5.028;2023-11-18T13:09:37;5.13;;;2.63;;
30301;SDS011;17111;52.130;5.028;2023-11-18T13:12:05;4.28;;;2.05;;
30301;SDS011;17111;52.130;5.028;2023-11-18T13:14:35;8.82;;;2.67;;
30301;SDS011;17111;52.130;5.028;2023-11-18T13:17:03;3.40;;;2.05;;
30301;SDS011;17111;52.130;5.028;2023-11-18T13:19:35;5.07;;;2.28;;
30301;SDS011;17111;52.130;5.028;2023-11-18T13:22:02;3.22;;;1.95;;
30301;SDS011;17111;52.130;5.028;2023-11-18T13:24:30;3.25;;;1.80;;
30301;SDS011;17111;52.130;5.028;2023-11-18T13:26:57;4.38;;;2.17;;
30301;SDS011;17111;52.130;5.028;2023-11-18T13:29:30;3.65;;;1.80;;
30301;SDS011;17111;52.130;5.028;2023-11-18T13:31:58;5.05;;;1.77;;
30301;SDS011;17111;52.130;5.028;2023-11-18T13:34:29;3.50;;;1.75;;
30301;SDS011;17111;52.130;5.028;2023-11-18T13:36:59;5.57;;;1.90;;
30301;SDS011;17111;52.130;5.028;2023-11-18T13:39:26;5.07;;;1.63;;
30301;SDS011;17111;52.130;5.028;2023-11-18T13:41:57;5.25;;;1.70;;
30301;SDS011;17111;52.130;5.028;2023-11-18T13:44:36;5.55;;;1.70;;
30301;SDS011;17111;52.130;5.028;2023-11-18T13:47:07;4.28;;;1.92;;
30301;SDS011;17111;52.130;5.028;2023-11-18T13:49:38;3.00;;;1.77;;
30301;SDS011;17111;52.130;5.028;2023-11-18T13:52:09;3.63;;;1.75;;
30301;SDS011;17111;52.130;5.028;2023-11-18T13:54:37;2.90;;;1.65;;
30301;SDS011;17111;52.130;5.028;2023-11-18T13:57:04;3.25;;;1.75;;
30301;SDS011;17111;52.130;5.028;2023-11-18T13:59:32;3.47;;;1.77;;
30301;SDS011;17111;52.130;5.028;2023-11-18T14:01:59;2.80;;;1.60;;
30301;SDS011;17111;52.130;5.028;2023-11-18T14:04:28;2.53;;;1.60;;
30301;SDS011;17111;52.130;5.028;2023-11-18T14:06:59;2.83;;;1.48;;
30301;SDS011;17111;52.130;5.028;2023-11-18T14:09:30;2.55;;;1.52;;
30301;SDS011;17111;52.130;5.028;2023-11-18T14:11:59;2.85;;;1.60;;
30301;SDS011;17111;52.130;5.028;2023-11-18T14:14:25;3.05;;;1.40;;
30301;SDS011;17111;52.130;5.028;2023-11-18T14:16:53;2.35;;;1.30;;
30301;SDS011;17111;52.130;5.028;2023-11-18T14:19:24;3.15;;;1.20;;
30301;SDS011;17111;52.130;5.028;2023-11-18T14:21:51;2.97;;;1.40;;
30301;SDS011;17111;52.130;5.028;2023-11-18T14:24:18;2.45;;;1.42;;
30301;SDS011;17111;52.130;5.028;2023-11-18T14:26:45;3.60;;;1.20;;
30301;SDS011;17111;52.130;5.028;2023-11-18T14:29:12;2.05;;;1.27;;
30301;SDS011;17111;52.130;5.028;2023-11-18T14:31:39;2.10;;;1.10;;
30301;SDS011;17111;52.130;5.028;2023-11-18T14:34:05;2.20;;;1.10;;
30301;SDS011;17111;52.130;5.028;2023-11-18T14:36:32;2.22;;;1.40;;
30301;SDS011;17111;52.130;5.028;2023-11-18T14:38:58;1.33;;;1.05;;
30301;SDS011;17111;52.130;5.028;2023-11-18T14:41:25;1.77;;;0.90;;
30301;SDS011;17111;52.130;5.028;2023-11-18T14:43:55;1.85;;;1.10;;
30301;SDS011;17111;52.130;5.028;2023-11-18T14:46:23;2.45;;;1.17;;
30301;SDS011;17111;52.130;5.028;2023-11-18T14:48:50;1.80;;;1.10;;
30301;SDS011;17111;52.130;5.028;2023-11-18T14:51:18;1.60;;;1.23;;
30301;SDS011;17111;52.130;5.028;2023-11-18T14:53:44;2.20;;;1.00;;
30301;SDS011;17111;52.130;5.028;2023-11-18T14:56:11;1.33;;;0.95;;
30301;SDS011;17111;52.130;5.028;2023-11-18T14:58:37;2.28;;;1.05;;
30301;SDS011;17111;52.130;5.028;2023-11-18T15:01:04;1.10;;;0.95;;
30301;SDS011;17111;52.130;5.028;2023-11-18T15:03:33;1.38;;;1.02;;
30301;SDS011;17111;52.130;5.028;2023-11-18T15:06:01;1.15;;;0.82;;
30301;SDS011;17111;52.130;5.028;2023-11-18T15:08:28;2.13;;;1.10;;
30301;SDS011;17111;52.130;5.028;2023-11-18T15:10:57;1.63;;;1.10;;
30301;SDS011;17111;52.130;5.028;2023-11-18T15:13:27;1.35;;;0.82;;
30301;SDS011;17111;52.130;5.028;2023-11-18T15:15:53;1.40;;;1.15;;
30301;SDS011;17111;52.130;5.028;2023-11-18T15:18:21;1.38;;;0.90;;
30301;SDS011;17111;52.130;5.028;2023-11-18T15:20:49;1.15;;;0.90;;